createdAt,value
2023-01-28T00:02:44.762Z,1.67
2023-01-28T00:07:52.024Z,2.63
2023-01-28T00:12:57.464Z,2.10
2023-01-28T00:18:02.973Z,1.53
2023-01-28T00:23:08.358Z,1.33
2023-01-28T00:28:13.751Z,2.17
2023-01-28T00:33:19.504Z,4.00
2023-01-28T00:38:24.985Z,3.10
2023-01-28T00:43:30.526Z,3.43
2023-01-28T00:48:37.452Z,2.40
2023-01-28T00:53:43.934Z,2.20
2023-01-28T00:58:49.757Z,2.17
2023-01-28T01:04:01.105Z,2.23
2023-01-28T01:09:10.183Z,1.03
2023-01-28T01:14:15.698Z,3.63
2023-01-28T01:19:21.156Z,2.53
2023-01-28T01:24:28.356Z,1.93
2023-01-28T01:29:34.169Z,1.00
2023-01-28T01:34:40.595Z,1.23
2023-01-28T01:39:45.976Z,1.63
2023-01-28T01:45:06.449Z,1.47
2023-01-28T01:50:18.920Z,2.90
2023-01-28T01:55:27.415Z,1.53
2023-01-28T02:00:32.931Z,2.30
2023-01-28T02:05:39.960Z,1.53
2023-01-28T02:10:49.068Z,2.20
2023-01-28T02:15:56.085Z,1.43
2023-01-28T02:21:23.864Z,3.30
2023-01-28T02:26:58.223Z,2.43
2023-01-28T02:32:06.725Z,1.67
2023-01-28T02:37:18.016Z,1.90
2023-01-28T02:42:27.382Z,3.23
2023-01-28T02:47:52.559Z,4.07
2023-01-28T02:53:20.079Z,1.83
2023-01-28T02:58:31.454Z,1.03
2023-01-28T03:03:43.363Z,1.83
2023-01-28T03:09:13.384Z,4.07
2023-01-28T03:14:39.274Z,2.97
2023-01-28T03:20:03.480Z,1.63
2023-01-28T03:25:30.515Z,2.00
2023-01-28T03:31:10.380Z,5.20
2023-01-28T03:36:35.846Z,1.80
2023-01-28T03:41:43.299Z,2.80
2023-01-28T03:46:49.089Z,2.00
2023-01-28T03:51:54.640Z,1.87
2023-01-28T03:57:00.243Z,2.27
2023-01-28T04:02:06.489Z,1.87
2023-01-28T04:07:15.580Z,1.57
2023-01-28T04:12:38.914Z,1.53
2023-01-28T04:17:50.777Z,1.67
2023-01-28T04:23:00.848Z,2.67
2023-01-28T04:28:07.195Z,1.10
2023-01-28T04:33:13.967Z,1.83
2023-01-28T04:38:21.038Z,1.33
2023-01-28T04:43:37.401Z,1.73
2023-01-28T04:48:50.210Z,1.57
2023-01-28T04:53:57.274Z,3.07
2023-01-28T04:59:08.515Z,1.67
2023-01-28T05:04:16.511Z,1.77
2023-01-28T05:09:22.284Z,0.80
2023-01-28T05:14:29.393Z,1.33
2023-01-28T05:19:36.533Z,3.27
2023-01-28T05:24:43.602Z,2.13
2023-01-28T05:29:49.119Z,2.30
2023-01-28T05:34:54.633Z,1.53
2023-01-28T05:40:00.105Z,2.50
2023-01-28T05:45:06.572Z,1.37
2023-01-28T05:50:15.931Z,1.90
2023-01-28T05:55:23.587Z,1.03
2023-01-28T06:00:29.307Z,1.73
2023-01-28T06:05:35.743Z,2.43
2023-01-28T06:10:41.852Z,1.00
2023-01-28T06:15:51.261Z,2.93
2023-01-28T06:20:58.468Z,1.17
2023-01-28T06:26:04.060Z,2.20
2023-01-28T06:31:09.937Z,1.80
2023-01-28T06:36:15.462Z,1.53
2023-01-28T06:41:20.848Z,1.50
2023-01-28T06:46:26.342Z,1.20
2023-01-28T06:51:31.898Z,1.77
2023-01-28T06:56:37.386Z,1.97
2023-01-28T07:01:42.953Z,3.23
2023-01-28T07:06:48.495Z,1.13
2023-01-28T07:11:54.032Z,1.80
2023-01-28T07:16:59.521Z,2.90
2023-01-28T07:22:05.445Z,2.23
2023-01-28T07:27:10.889Z,1.63
2023-01-28T07:32:16.349Z,1.77
2023-01-28T07:37:22.570Z,2.13
2023-01-28T07:42:28.092Z,2.10
2023-01-28T07:47:34.036Z,2.97
2023-01-28T07:52:41.962Z,3.73
2023-01-28T07:57:58.545Z,1.80
2023-01-28T08:03:06.732Z,2.57
2023-01-28T08:08:12.591Z,3.30
2023-01-28T08:13:18.933Z,4.00
2023-01-28T08:18:24.386Z,4.97
2023-01-28T08:23:30.427Z,3.87
2023-01-28T08:28:36.281Z,4.53
2023-01-28T08:33:42.242Z,2.20
2023-01-28T08:38:47.693Z,1.90
2023-01-28T08:43:53.098Z,2.17
2023-01-28T08:48:58.487Z,7.97
2023-01-28T08:54:04.195Z,9.20
2023-01-28T08:59:09.839Z,9.83
2023-01-28T09:04:15.320Z,5.37
2023-01-28T09:09:20.884Z,6.67
2023-01-28T09:14:26.547Z,3.33
2023-01-28T09:19:32.031Z,4.43
2023-01-28T09:24:39.007Z,3.93
2023-01-28T09:29:44.690Z,6.87
2023-01-28T09:34:50.293Z,7.00
2023-01-28T09:39:55.762Z,10.73
2023-01-28T09:45:09.840Z,11.77
2023-01-28T09:50:30.673Z,9.00
2023-01-28T09:55:39.358Z,10.77
2023-01-28T10:01:06.050Z,14.10
2023-01-28T10:06:17.229Z,9.03
2023-01-28T10:11:25.838Z,11.03
2023-01-28T10:16:42.994Z,11.00
2023-01-28T10:22:10.013Z,8.03
2023-01-28T10:27:24.682Z,7.57
2023-01-28T10:32:34.400Z,7.03
2023-01-28T10:37:41.519Z,8.27
2023-01-28T10:42:47.482Z,8.43
2023-01-28T10:48:05.157Z,7.93
2023-01-28T10:53:10.589Z,5.27
2023-01-28T10:58:24.920Z,5.23
2023-01-28T11:03:35.913Z,4.63
2023-01-28T11:08:45.677Z,3.70
2023-01-28T11:13:54.134Z,4.80
2023-01-28T11:19:03.218Z,2.50
2023-01-28T11:24:22.639Z,4.53
2023-01-28T11:29:36.973Z,7.07
2023-01-28T11:34:45.453Z,2.37
2023-01-28T11:39:52.425Z,5.10
2023-01-28T11:44:57.883Z,2.17
2023-01-28T11:50:19.276Z,2.37
2023-01-28T11:55:40.544Z,2.40
2023-01-28T12:01:21.134Z,3.93
2023-01-28T12:06:41.968Z,1.73
2023-01-28T12:12:13.089Z,1.70
2023-01-28T12:17:30.703Z,3.53
2023-01-28T12:23:00.664Z,1.23
2023-01-28T12:28:18.421Z,2.83
2023-01-28T12:33:57.440Z,1.33
2023-01-28T12:39:14.768Z,2.17
2023-01-28T12:44:26.069Z,1.43
2023-01-28T12:49:43.291Z,2.37
2023-01-28T12:55:13.702Z,0.97
2023-01-28T13:00:28.135Z,0.80
2023-01-28T13:05:36.633Z,1.87
2023-01-28T13:10:47.173Z,2.30
2023-01-28T13:15:52.918Z,2.53
2023-01-28T13:20:58.523Z,2.43
2023-01-28T13:26:25.272Z,2.00
2023-01-28T13:31:33.697Z,0.80
2023-01-28T13:36:42.566Z,1.80
2023-01-28T13:41:51.048Z,1.67
2023-01-28T13:47:02.925Z,1.23
2023-01-28T13:52:14.171Z,1.03
2023-01-28T13:57:25.608Z,3.03
2023-01-28T14:02:56.807Z,0.73
2023-01-28T14:08:26.404Z,1.57
2023-01-28T14:13:34.963Z,0.90
2023-01-28T14:18:45.334Z,1.13
2023-01-28T14:23:56.986Z,1.33
2023-01-28T14:29:11.129Z,1.13
2023-01-28T14:34:20.157Z,1.57
2023-01-28T14:39:33.939Z,1.23
2023-01-28T14:44:44.585Z,1.10
2023-01-28T14:50:01.976Z,2.13
2023-01-28T14:55:22.463Z,2.70
2023-01-28T15:00:31.237Z,2.33
2023-01-28T15:05:37.015Z,2.83
2023-01-28T15:10:42.564Z,2.13
2023-01-28T15:15:51.172Z,2.97
2023-01-28T15:20:57.990Z,2.97
2023-01-28T15:26:09.075Z,3.07
2023-01-28T15:31:26.309Z,4.87
2023-01-28T15:36:32.867Z,4.73
2023-01-28T15:41:40.534Z,4.00
2023-01-28T15:46:46.561Z,5.33
2023-01-28T15:51:52.471Z,4.13
2023-01-28T15:56:59.947Z,3.63
2023-01-28T16:02:25.411Z,3.10
2023-01-28T16:07:34.194Z,1.73
2023-01-28T16:12:39.715Z,4.13
2023-01-28T16:17:48.169Z,2.63
2023-01-28T16:22:56.443Z,2.90
2023-01-28T16:28:04.639Z,3.00
2023-01-28T16:33:22.118Z,4.27
2023-01-28T16:38:27.690Z,2.47
2023-01-28T16:48:38.715Z,1.77
2023-01-28T16:53:45.143Z,4.97
2023-01-28T16:58:50.876Z,3.70
2023-01-28T17:03:56.926Z,6.03
2023-01-28T17:09:02.517Z,4.03
2023-01-28T17:14:08.344Z,4.23
2023-01-28T17:19:13.779Z,5.13
2023-01-28T17:24:19.273Z,4.97
2023-01-28T17:29:24.828Z,3.60
2023-01-28T17:34:31.488Z,5.30
2023-01-28T17:39:37.019Z,2.60
2023-01-28T17:44:42.463Z,2.13
2023-01-28T17:49:47.917Z,2.30
2023-01-28T17:54:53.596Z,3.60
2023-01-28T17:59:59.074Z,2.60
2023-01-28T18:05:04.914Z,1.93
2023-01-28T18:10:11.441Z,3.37
2023-01-28T18:15:17.403Z,3.73
2023-01-28T18:20:23.165Z,3.77
2023-01-28T18:25:28.923Z,8.50
2023-01-28T18:30:34.337Z,4.63
2023-01-28T18:35:44.568Z,3.87
2023-01-28T18:40:51.483Z,2.00
2023-01-28T18:45:56.921Z,2.17
2023-01-28T18:51:02.428Z,1.60
2023-01-28T18:56:09.315Z,2.40
2023-01-28T19:01:14.872Z,2.10
2023-01-28T19:06:20.449Z,2.77
2023-01-28T19:11:27.974Z,4.63
2023-01-28T19:16:35.500Z,2.43
2023-01-28T19:21:41.346Z,2.60
2023-01-28T19:26:46.959Z,2.13
2023-01-28T19:31:52.612Z,1.10
2023-01-28T19:36:58.159Z,2.67
2023-01-28T19:42:03.629Z,2.93
2023-01-28T19:47:09.232Z,2.77
2023-01-28T19:52:14.693Z,1.20
2023-01-28T19:57:20.543Z,1.63
2023-01-28T20:02:26.070Z,1.07
2023-01-28T20:07:31.691Z,0.80
2023-01-28T20:12:37.221Z,2.27
2023-01-28T20:17:42.763Z,1.90
2023-01-28T20:22:49.252Z,1.37
2023-01-28T20:27:54.640Z,1.80
2023-01-28T20:33:00.025Z,1.23
2023-01-28T20:38:05.651Z,2.57
2023-01-28T20:43:11.686Z,2.77
2023-01-28T20:48:17.226Z,2.17
2023-01-28T20:53:23.948Z,2.47
2023-01-28T20:58:29.853Z,1.73
2023-01-28T21:03:35.870Z,2.03
2023-01-28T21:08:41.436Z,1.60
2023-01-28T21:13:47.259Z,1.67
2023-01-28T21:18:53.034Z,1.23
2023-01-28T21:24:01.090Z,5.23
2023-01-28T21:29:07.035Z,2.90
2023-01-28T21:34:13.458Z,2.33
2023-01-28T21:39:19.023Z,3.00
2023-01-28T21:44:24.599Z,3.13
2023-01-28T21:49:30.056Z,1.83
2023-01-28T21:54:36.124Z,3.20
2023-01-28T21:59:41.639Z,1.83
2023-01-28T22:04:49.382Z,2.20
2023-01-28T22:09:54.907Z,3.60
2023-01-28T22:15:00.376Z,2.53
2023-01-28T22:20:06.659Z,2.23
2023-01-28T22:25:12.254Z,2.20
2023-01-28T22:30:18.519Z,1.37
2023-01-28T22:35:23.977Z,1.93
2023-01-28T22:40:29.509Z,2.50
2023-01-28T22:45:35.102Z,2.27
2023-01-28T22:50:40.568Z,1.53
2023-01-28T22:55:46.122Z,2.53
2023-01-28T23:00:51.923Z,2.60
2023-01-28T23:06:02.316Z,4.53
2023-01-28T23:11:09.339Z,3.93
2023-01-28T23:16:32.716Z,5.67
2023-01-28T23:21:56.188Z,2.93
2023-01-28T23:27:03.132Z,1.80
2023-01-28T23:32:11.442Z,2.83
2023-01-28T23:37:17.828Z,2.90
2023-01-28T23:42:23.762Z,2.10
2023-01-28T23:47:29.254Z,2.83
2023-01-28T23:52:34.703Z,5.93
2023-01-28T23:57:40.828Z,3.27
